Joke — FW7007 — position and weather

sailwx.info

Track history (hours):
 
Tides and Currents Weather Stations Pressure Air Temp Water Temp Dewpoint Dewpoint Depression Visibility Wind Speed Wind Dir Waves Ship Positions

Joke

Last reported at 2018-Jun-16 07:36 UTC. Time now 2018-Jun-23 15:26 UTC.
Position N 39°10' W 026°58'.

Length 13 m.

Type: Pleasure craft. MMSI: 227525730.

Date/timePositionNaut miles runAvg speedWind from/ knotsBaromVisibWave heightAir tempDewpointWater temp
2018-Jun-16 07:36N 39°10' W 026°58'4 5.0
2018-Jun-16 06:45N 39°10' W 027°03'1 4.8
2018-Jun-16 06:30N 39°09' W 027°05'3 4.8
2018-Jun-16 05:57N 39°09' W 027°08'2 4.6
2018-Jun-16 05:30N 39°08' W 027°11'4 4.4
2018-Jun-16 04:35N 39°08' W 027°16'1 4.5
2018-Jun-16 04:21N 39°08' W 027°17'2 4.5
2018-Jun-16 03:58N 39°08' W 027°19'3 4.6
2018-Jun-16 03:25N 39°07' W 027°23'2 4.6
2018-Jun-16 03:00N 39°07' W 027°25'2 4.6
2018-Jun-16 02:30N 39°06' W 027°28'2 4.4
2018-Jun-16 01:59N 39°06' W 027°31'2 4.5
2018-Jun-16 01:29N 39°05' W 027°34'2 4.5
2018-Jun-16 01:00N 39°05' W 027°37'2 4.4
2018-Jun-16 00:30N 39°05' W 027°39'2 4.4
2018-Jun-16 00:00N 39°04' W 027°42'2 4.5
2018-Jun-15 23:30N 39°03' W 027°45'2 4.3
2018-Jun-15 23:00N 39°03' W 027°47'2 4.2
2018-Jun-15 22:30N 39°02' W 027°50'2 3.8
2018-Jun-15 22:00N 39°01' W 027°52'2 3.7
2018-Jun-15 21:30N 39°00' W 027°54'2 3.8
2018-Jun-15 21:00N 38°59' W 027°56'2 4.7
2018-Jun-15 20:30N 38°59' W 027°59'2 4.9
2018-Jun-15 20:00N 38°57' W 028°02'2 4.7
2018-Jun-15 19:29N 38°56' W 028°04'2 4.6
2018-Jun-15 19:00N 38°54' W 028°07'3 5.1
2018-Jun-15 18:30N 38°53' W 028°09'3 5.5
2018-Jun-15 17:59N 38°52' W 028°13'2 5.2
2018-Jun-15 17:30N 38°50' W 028°15'3 5.6
2018-Jun-15 17:00N 38°49' W 028°18'3 5.8
2018-Jun-15 16:30N 38°47' W 028°21'3 5.8
2018-Jun-15 16:00N 38°45' W 028°24'3 6.2
2018-Jun-15 15:30N 38°42' W 028°26'3 6.5
2018-Jun-15 15:00N 38°40' W 028°29'3 6.4
2018-Jun-15 14:30N 38°37' W 028°31'3 6.3
2018-Jun-15 14:00N 38°35' W 028°33'3 6.7
2018-Jun-15 13:30N 38°32' W 028°36'1 1.9
2018-Jun-15 12:59N 38°32' W 028°38'0 0.0
2018-Jun-15 12:29N 38°32' W 028°38'0 0.0
2018-Jun-15 11:56N 38°32' W 028°38'0 0.0
2018-Jun-15 11:30N 38°32' W 028°38'0 0.0
2018-Jun-15 11:00N 38°32' W 028°38'  
2018-Jun-11 15:49N 38°32' W 028°38'0 0.5
2018-Jun-11 15:30N 38°32' W 028°38'0 0.0
2018-Jun-11 15:00N 38°32' W 028°38'0 0.0
2018-Jun-11 14:29N 38°32' W 028°38'0 0.0
2018-Jun-11 14:00N 38°32' W 028°38'0 0.0
2018-Jun-11 13:30N 38°32' W 028°38'0 0.1
2018-Jun-11 13:00N 38°32' W 028°37'2 3.3
2018-Jun-11 12:29N 38°30' W 028°38'2 5.0
2018-Jun-11 12:00N 38°30' W 028°41'3 5.9
2018-Jun-11 11:30N 38°30' W 028°45'3 5.6
2018-Jun-11 11:00N 38°30' W 028°49'3 6.0
2018-Jun-11 10:30N 38°30' W 028°52'3 6.4
2018-Jun-11 10:00N 38°30' W 028°57'3 6.7
2018-Jun-11 09:30N 38°31' W 029°01'3 6.4
2018-Jun-11 09:00N 38°31' W 029°05'3 6.8
2018-Jun-11 08:30N 38°31' W 029°09'3 6.4
2018-Jun-11 08:00N 38°31' W 029°13'3 6.1
2018-Jun-11 07:30N 38°30' W 029°17'3 6.4
2018-Jun-11 07:00N 38°31' W 029°21'3 6.5
2018-Jun-11 06:30N 38°31' W 029°25'3 6.2
2018-Jun-11 05:59N 38°31' W 029°29'3 5.7
2018-Jun-11 05:30N 38°32' W 029°33'3 5.2
2018-Jun-11 05:00N 38°32' W 029°36'2 3.5
2018-Jun-11 04:30N 38°32' W 029°39'2 3.3
2018-Jun-11 04:00N 38°32' W 029°41'2 3.2
2018-Jun-11 03:30N 38°32' W 029°43'2 3.0
2018-Jun-11 03:00N 38°32' W 029°45'2 3.9
2018-Jun-11 02:30N 38°32' W 029°47'3 5.6
2018-Jun-11 02:00N 38°32' W 029°51'3 5.5
2018-Jun-11 01:30N 38°32' W 029°54'3 5.0
2018-Jun-11 01:00N 38°32' W 029°57'2 4.5
2018-Jun-11 00:28N 38°32' W 030°00'3 4.7
2018-Jun-10 23:53N 38°31' W 030°04'2 4.4
2018-Jun-10 23:28N 38°31' W 030°06'4 4.7
2018-Jun-10 22:32N 38°31' W 030°12'  
Track history (hours):
 
Tides and Currents Weather Stations Pressure Air Temp Water Temp Dewpoint Dewpoint Depression Visibility Wind Speed Wind Dir Waves Ship Positions

Joke

Last reported at 2018-Jun-16 07:36 UTC. Time now 2018-Jun-23 15:26 UTC.
Position N 39°10' W 026°58'.

Length 13 m.

Type: Pleasure craft. MMSI: 227525730.

Date/timePositionNaut miles runAvg speedWind from/ knotsBaromVisibWave heightAir tempDewpointWater temp
2018-Jun-16 07:36N 39°10' W 026°58'4 5.0
2018-Jun-16 06:45N 39°10' W 027°03'1 4.8
2018-Jun-16 06:30N 39°09' W 027°05'3 4.8
2018-Jun-16 05:57N 39°09' W 027°08'2 4.6
2018-Jun-16 05:30N 39°08' W 027°11'4 4.4
2018-Jun-16 04:35N 39°08' W 027°16'1 4.5
2018-Jun-16 04:21N 39°08' W 027°17'2 4.5
2018-Jun-16 03:58N 39°08' W 027°19'3 4.6
2018-Jun-16 03:25N 39°07' W 027°23'2 4.6
2018-Jun-16 03:00N 39°07' W 027°25'2 4.6
2018-Jun-16 02:30N 39°06' W 027°28'2 4.4
2018-Jun-16 01:59N 39°06' W 027°31'2 4.5
2018-Jun-16 01:29N 39°05' W 027°34'2 4.5
2018-Jun-16 01:00N 39°05' W 027°37'2 4.4
2018-Jun-16 00:30N 39°05' W 027°39'2 4.4
2018-Jun-16 00:00N 39°04' W 027°42'2 4.5
2018-Jun-15 23:30N 39°03' W 027°45'2 4.3
2018-Jun-15 23:00N 39°03' W 027°47'2 4.2
2018-Jun-15 22:30N 39°02' W 027°50'2 3.8
2018-Jun-15 22:00N 39°01' W 027°52'2 3.7
2018-Jun-15 21:30N 39°00' W 027°54'2 3.8
2018-Jun-15 21:00N 38°59' W 027°56'2 4.7
2018-Jun-15 20:30N 38°59' W 027°59'2 4.9
2018-Jun-15 20:00N 38°57' W 028°02'2 4.7
2018-Jun-15 19:29N 38°56' W 028°04'2 4.6
2018-Jun-15 19:00N 38°54' W 028°07'3 5.1
2018-Jun-15 18:30N 38°53' W 028°09'3 5.5
2018-Jun-15 17:59N 38°52' W 028°13'2 5.2
2018-Jun-15 17:30N 38°50' W 028°15'3 5.6
2018-Jun-15 17:00N 38°49' W 028°18'3 5.8
2018-Jun-15 16:30N 38°47' W 028°21'3 5.8
2018-Jun-15 16:00N 38°45' W 028°24'3 6.2
2018-Jun-15 15:30N 38°42' W 028°26'3 6.5
2018-Jun-15 15:00N 38°40' W 028°29'3 6.4
2018-Jun-15 14:30N 38°37' W 028°31'3 6.3
2018-Jun-15 14:00N 38°35' W 028°33'3 6.7
2018-Jun-15 13:30N 38°32' W 028°36'1 1.9
2018-Jun-15 12:59N 38°32' W 028°38'0 0.0
2018-Jun-15 12:29N 38°32' W 028°38'0 0.0
2018-Jun-15 11:56N 38°32' W 028°38'0 0.0
2018-Jun-15 11:30N 38°32' W 028°38'0 0.0
2018-Jun-15 11:00N 38°32' W 028°38'  
2018-Jun-11 15:49N 38°32' W 028°38'0 0.5
2018-Jun-11 15:30N 38°32' W 028°38'0 0.0
2018-Jun-11 15:00N 38°32' W 028°38'0 0.0
2018-Jun-11 14:29N 38°32' W 028°38'0 0.0
2018-Jun-11 14:00N 38°32' W 028°38'0 0.0
2018-Jun-11 13:30N 38°32' W 028°38'0 0.1
2018-Jun-11 13:00N 38°32' W 028°37'2 3.3
2018-Jun-11 12:29N 38°30' W 028°38'2 5.0
2018-Jun-11 12:00N 38°30' W 028°41'3 5.9
2018-Jun-11 11:30N 38°30' W 028°45'3 5.6
2018-Jun-11 11:00N 38°30' W 028°49'3 6.0
2018-Jun-11 10:30N 38°30' W 028°52'3 6.4
2018-Jun-11 10:00N 38°30' W 028°57'3 6.7
2018-Jun-11 09:30N 38°31' W 029°01'3 6.4
2018-Jun-11 09:00N 38°31' W 029°05'3 6.8
2018-Jun-11 08:30N 38°31' W 029°09'3 6.4
2018-Jun-11 08:00N 38°31' W 029°13'3 6.1
2018-Jun-11 07:30N 38°30' W 029°17'3 6.4
2018-Jun-11 07:00N 38°31' W 029°21'3 6.5
2018-Jun-11 06:30N 38°31' W 029°25'3 6.2
2018-Jun-11 05:59N 38°31' W 029°29'3 5.7
2018-Jun-11 05:30N 38°32' W 029°33'3 5.2
2018-Jun-11 05:00N 38°32' W 029°36'2 3.5
2018-Jun-11 04:30N 38°32' W 029°39'2 3.3
2018-Jun-11 04:00N 38°32' W 029°41'2 3.2
2018-Jun-11 03:30N 38°32' W 029°43'2 3.0
2018-Jun-11 03:00N 38°32' W 029°45'2 3.9
2018-Jun-11 02:30N 38°32' W 029°47'3 5.6
2018-Jun-11 02:00N 38°32' W 029°51'3 5.5
2018-Jun-11 01:30N 38°32' W 029°54'3 5.0
2018-Jun-11 01:00N 38°32' W 029°57'2 4.5
2018-Jun-11 00:28N 38°32' W 030°00'3 4.7
2018-Jun-10 23:53N 38°31' W 030°04'2 4.4
2018-Jun-10 23:28N 38°31' W 030°06'4 4.7
2018-Jun-10 22:32N 38°31' W 030°12'  

Dump ship's entire track history